Time;durP1;ratioP1;P1;durP2;ratioP2;P2;SDS_P1;SDS_P2;PMS_P1;PMS_P2;Temp;Humidity;BMP_temperature;BMP_pressure;BME280_temperature;BME280_humidity;BME280_pressure;Samples;Min_cycle;Max_cycle;Signal;HPM_P1;HPM_P2
2022/09/14 16:06:13;;;;;;;10.93;9.83;;;;;;;14.45;100.00;98611.39;1793532;78;23151;-70
2022/09/14 16:08:39;;;;;;;10.98;9.33;;;;;;;14.38;100.00;98615.18;1771736;80;21050;-70
2022/09/14 16:11:07;;;;;;;8.98;7.60;;;;;;;14.48;100.00;98616.00;1770006;80;22108;-71
2022/09/14 16:13:35;;;;;;;10.60;7.15;;;;;;;14.55;100.00;98617.67;1789067;80;21022;-71
2022/09/14 16:16:08;;;;;;;6.55;5.85;;;;;;;14.60;100.00;98612.83;1768371;80;21044;-71
2022/09/14 16:18:35;;;;;;;7.50;5.87;;;;;;;14.67;100.00;98611.77;1758769;81;21101;-70
2022/09/14 16:21:06;;;;;;;8.88;5.70;;;;;;;14.76;100.00;98611.20;1759000;80;21049;-70
2022/09/14 16:23:41;;;;;;;8.03;5.80;;;;;;;14.84;100.00;98617.78;1760584;80;21094;-70
2022/09/14 16:26:14;;;;;;;9.98;7.25;;;;;;;14.88;100.00;98611.87;1765436;80;21045;-72
2022/09/14 16:28:42;;;;;;;14.28;12.23;;;;;;;14.91;100.00;98613.98;1777341;80;21581;-74
2022/09/14 16:31:13;;;;;;;8.18;7.12;;;;;;;14.99;100.00;98613.69;1790418;80;21018;-71
2022/09/14 16:33:44;;;;;;;10.23;7.03;;;;;;;15.04;100.00;98616.27;1782044;80;21010;-72
2022/09/14 16:36:13;;;;;;;10.08;8.45;;;;;;;15.02;100.00;98617.17;1769290;80;21642;-70
2022/09/14 16:38:39;;;;;;;12.95;11.10;;;;;;;15.03;100.00;98611.34;1772315;80;21466;-72
2022/09/14 16:41:07;;;;;;;9.48;8.08;;;;;;;15.09;100.00;98615.50;1777129;80;21609;-70
2022/09/14 16:43:35;;;;;;;8.75;7.60;;;;;;;15.09;100.00;98613.36;1769603;80;20951;-73
2022/09/14 16:46:10;;;;;;;8.75;7.60;;;;;;;15.08;100.00;98615.29;1725053;82;21455;-70
2022/09/14 16:48:40;;;;;;;73.47;62.45;;;;;;;15.07;100.00;98620.52;1715786;83;21006;-72
2022/09/14 16:51:08;;;;;;;14.58;12.45;;;;;;;15.05;100.00;98624.17;1718648;81;21616;-72
2022/09/14 16:53:37;;;;;;;14.13;9.25;;;;;;;15.03;100.00;98616.83;1723265;83;22124;-71
2022/09/14 16:56:11;;;;;;;14.60;9.53;;;;;;;14.99;100.00;98620.54;1708382;83;21031;-72
2022/09/14 16:58:38;;;;;;;13.50;10.53;;;;;;;15.00;100.00;98624.34;1718577;83;22071;-70
2022/09/14 17:01:11;;;;;;;;;;;;;;;14.99;100.00;98625.45;1727801;83;21049;-70
2022/09/14 17:03:37;;;;;;;16.67;12.25;;;;;;;14.91;100.00;98617.50;1722114;82;20427;-71
2022/09/14 17:06:07;;;;;;;15.55;10.50;;;;;;;14.79;100.00;98624.23;1676236;83;21043;-71
2022/09/14 17:08:35;;;;;;;11.88;9.85;;;;;;;14.77;100.00;98627.84;1744556;82;21003;-71
2022/09/14 17:11:03;;;;;;;12.43;9.68;;;;;;;14.82;100.00;98626.88;1734924;82;22278;-70
2022/09/14 17:13:30;;;;;;;12.47;9.85;;;;;;;14.82;100.00;98626.88;1737357;82;20978;-71
2022/09/14 17:16:07;;;;;;;11.85;8.93;;;;;;;14.80;100.00;98627.78;1733980;82;21077;-69
2022/09/14 17:18:34;;;;;;;;;;;;;;;14.79;100.00;98627.53;1743699;80;21001;-69
2022/09/14 17:21:12;;;;;;;11.33;9.18;;;;;;;14.74;100.00;98623.03;1729473;82;20512;-69
2022/09/14 17:23:39;;;;;;;8.28;7.37;;;;;;;14.61;100.00;98628.14;1739130;82;20943;-68
2022/09/14 17:26:09;;;;;;;10.13;7.22;;;;;;;14.56;100.00;98626.92;1739297;82;21348;-69
2022/09/14 17:28:39;;;;;;;9.00;7.05;;;;;;;14.51;100.00;98621.63;1731735;82;21408;-68
2022/09/14 17:31:06;;;;;;;8.93;6.90;;;;;;;14.46;100.00;98624.52;1741698;82;21019;-69
2022/09/14 17:33:34;;;;;;;8.23;6.92;;;;;;;14.37;100.00;98624.55;1737418;82;20967;-68
2022/09/14 17:36:02;;;;;;;7.92;6.42;;;;;;;14.28;100.00;98631.09;1740995;82;21589;-68
2022/09/14 17:38:33;;;;;;;9.83;6.37;;;;;;;14.24;100.00;98632.31;1740835;82;21015;-69
2022/09/14 17:41:05;;;;;;;8.50;6.75;;;;;;;14.27;100.00;98636.36;1733243;82;20979;-69
2022/09/14 17:43:33;;;;;;;10.00;6.70;;;;;;;14.27;100.00;98637.72;1729572;82;20975;-70
2022/09/14 17:46:00;;;;;;;9.55;7.00;;;;;;;14.22;100.00;98635.95;1739439;82;21011;-70
2022/09/14 17:48:33;;;;;;;8.33;7.33;;;;;;;14.16;100.00;98636.43;1735748;82;21415;-70
2022/09/14 17:51:06;;;;;;;7.33;6.60;;;;;;;14.13;100.00;98643.92;1740507;80;20983;-71
2022/09/14 17:53:41;;;;;;;6.55;5.80;;;;;;;14.13;100.00;98646.09;1740813;82;21012;-72
2022/09/14 17:56:10;;;;;;;8.60;5.83;;;;;;;14.15;100.00;98641.66;1734445;82;21039;-71
2022/09/14 17:58:37;;;;;;;7.85;5.90;;;;;;;14.13;100.00;98647.46;1736173;82;21664;-69
2022/09/14 18:01:14;;;;;;;7.95;6.12;;;;;;;14.10;100.00;98643.20;1748116;82;21440;-69
2022/09/14 18:03:42;;;;;;;7.03;5.92;;;;;;;14.03;100.00;98639.54;1746196;82;20969;-68
2022/09/14 18:06:11;;;;;;;6.22;5.58;;;;;;;14.01;100.00;98636.34;1748788;80;21079;-68
2022/09/14 18:08:39;;;;;;;8.28;5.55;;;;;;;14.04;100.00;98638.98;1720723;80;21498;-68
2022/09/14 18:11:09;;;;;;;7.00;5.37;;;;;;;14.05;100.00;98635.94;1743914;80;21063;-68
2022/09/14 18:13:45;;;;;;;6.67;5.70;;;;;;;14.06;100.00;98638.12;1747957;80;20995;-67
2022/09/14 18:16:12;;;;;;;7.30;6.10;;;;;;;14.02;100.00;98632.48;1752179;80;21038;-68
2022/09/14 18:18:40;;;;;;;8.58;7.03;;;;;;;13.96;100.00;98633.73;1708900;82;21487;-68
2022/09/14 18:21:07;;;;;;;9.08;7.47;;;;;;;13.91;100.00;98634.72;1760841;80;21475;-68
2022/09/14 18:23:34;;;;;;;8.43;7.53;;;;;;;13.92;100.00;98643.15;1749374;80;21463;-68
2022/09/14 18:26:02;;;;;;;8.90;7.30;;;;;;;13.91;100.00;98638.02;1747239;80;21652;-68
2022/09/14 18:28:29;;;;;;;9.45;7.30;;;;;;;13.89;100.00;98634.22;1747122;80;21022;-67
2022/09/14 18:31:02;;;;;;;8.75;7.85;;;;;;;13.85;100.00;98633.24;1750442;80;21067;-68
2022/09/14 18:33:29;;;;;;;8.88;7.97;;;;;;;13.78;100.00;98632.13;1754169;81;21059;-68
2022/09/14 18:35:55;;;;;;;9.50;7.47;;;;;;;13.74;100.00;98631.16;1747466;82;21043;-68
2022/09/14 18:38:22;;;;;;;;;;;;;;;13.74;100.00;98626.49;1733823;80;20948;-68
2022/09/14 18:40:48;;;;;;;8.15;6.50;;;;;;;13.74;100.00;98630.59;1738990;80;20319;-68
2022/09/14 18:43:15;;;;;;;11.20;8.55;;;;;;;13.69;100.00;98632.66;1749908;80;20963;-68
2022/09/14 18:45:43;;;;;;;9.90;8.45;;;;;;;13.64;100.00;98626.77;1749005;80;21062;-69
2022/09/14 18:48:10;;;;;;;10.28;8.28;;;;;;;13.57;100.00;98629.16;1747092;80;21067;-68
2022/09/14 18:50:38;;;;;;;13.72;9.35;;;;;;;13.53;100.00;98617.84;1748301;80;21091;-68
2022/09/14 18:53:05;;;;;;;10.70;9.33;;;;;;;13.51;100.00;98614.03;1737614;80;21693;-68
2022/09/14 18:55:35;;;;;;;11.05;8.55;;;;;;;13.50;100.00;98617.11;1738733;80;21146;-69
2022/09/14 18:58:03;;;;;;;9.25;7.87;;;;;;;13.49;100.00;98620.95;1755348;80;21022;-69
2022/09/14 19:00:29;;;;;;;;;;;;;;;13.46;100.00;98626.50;1747722;80;21110;-68
2022/09/14 19:02:56;;;;;;;10.68;8.65;;;;;;;13.41;100.00;98626.08;1759665;80;20438;-69
2022/09/14 19:05:24;;;;;;;10.43;8.50;;;;;;;13.27;100.00;98626.75;1752337;80;21574;-69
2022/09/14 19:07:51;;;;;;;9.68;7.97;;;;;;;13.23;100.00;98631.23;1762045;80;21460;-69
2022/09/14 19:10:19;;;;;;;9.43;7.83;;;;;;;13.23;100.00;98624.95;1755634;81;21075;-69
2022/09/14 19:12:45;;;;;;;14.35;7.83;;;;;;;13.22;100.00;98624.70;1751287;81;20957;-69
2022/09/14 19:15:12;;;;;;;10.63;7.30;;;;;;;13.24;100.00;98624.66;1767378;80;21107;-69
2022/09/14 19:17:39;;;;;;;10.03;7.83;;;;;;;13.23;100.00;98620.86;1769359;81;20916;-69
2022/09/14 19:20:07;;;;;;;9.83;7.72;;;;;;;13.23;100.00;98624.41;1755448;80;21035;-69
2022/09/14 19:22:33;;;;;;;9.25;7.70;;;;;;;13.21;100.00;98628.03;1705118;83;21015;-69
2022/09/14 19:24:59;;;;;;;;;;;;;;;13.16;100.00;98631.44;1695653;84;21071;-69
2022/09/14 19:27:26;;;;;;;9.18;7.40;;;;;;;13.13;100.00;98634.81;1682445;83;20802;-69
2022/09/14 19:29:52;;;;;;;8.73;6.97;;;;;;;13.09;100.00;98636.52;1774633;81;21799;-69
2022/09/14 19:32:19;;;;;;;9.80;8.15;;;;;;;13.08;100.00;98633.53;1762786;81;21459;-69
2022/09/14 19:34:48;;;;;;;9.90;8.70;;;;;;;13.06;100.00;98629.77;1745868;81;21047;-69
2022/09/14 19:37:14;;;;;;;10.15;9.05;;;;;;;13.04;100.00;98625.75;1763535;81;21004;-68
2022/09/14 19:39:41;;;;;;;9.88;8.80;;;;;;;12.97;100.00;98627.53;1752491;80;21387;-69
2022/09/14 19:42:07;;;;;;;11.12;8.38;;;;;;;12.90;100.00;98636.19;1764668;80;21070;-69
2022/09/14 19:44:34;;;;;;;9.05;7.97;;;;;;;12.88;100.00;98637.07;1755203;80;21098;-69
2022/09/14 19:47:01;;;;;;;7.92;7.05;;;;;;;12.91;100.00;98639.73;1764421;81;21054;-69
2022/09/14 19:49:28;;;;;;;10.05;7.70;;;;;;;12.90;100.00;98632.09;1756414;81;21137;-69
2022/09/14 19:51:55;;;;;;;7.58;6.80;;;;;;;12.90;100.00;98635.38;1759026;81;21061;-69
2022/09/14 19:54:21;;;;;;;8.18;7.17;;;;;;;12.84;100.00;98627.89;1762240;80;21594;-69
2022/09/14 19:56:48;;;;;;;;;;;;;;;12.85;100.00;98631.43;1748090;81;21023;-69
2022/09/14 19:59:15;;;;;;;9.35;6.25;;;;;;;12.87;100.00;98631.35;1753643;80;20471;-69
2022/09/14 20:01:42;;;;;;;9.13;6.00;;;;;;;12.83;100.00;98633.64;1749467;80;21030;-70
2022/09/14 20:04:11;;;;;;;8.60;6.53;;;;;;;12.83;100.00;98633.64;1710539;84;21063;-69
2022/09/14 20:06:41;;;;;;;7.92;6.62;;;;;;;12.84;100.00;98622.98;1747470;80;21414;-69
2022/09/14 20:09:11;;;;;;;8.03;6.80;;;;;;;12.81;100.00;98623.61;1746913;82;21035;-69
2022/09/14 20:11:39;;;;;;;8.38;6.58;;;;;;;12.75;100.00;98628.97;1769793;81;21019;-69
2022/09/14 20:14:08;;;;;;;8.33;6.28;;;;;;;12.72;100.00;98624.91;1777620;81;21031;-69
2022/09/14 20:16:37;;;;;;;7.45;6.65;;;;;;;12.72;100.00;98632.30;1755497;80;21570;-69
2022/09/14 20:19:22;;;;;;;6.72;6.05;;;;;;;12.70;100.00;98621.70;1706430;84;21062;-69
2022/09/14 20:21:49;;;;;;;7.55;6.28;;;;;;;12.72;100.00;98624.91;1680724;85;21161;-69
2022/09/14 20:24:24;;;;;;;8.48;6.53;;;;;;;12.74;100.00;98625.42;1744788;81;21097;-69
2022/09/14 20:26:49;;;;;;;7.33;6.62;;;;;;;12.75;100.00;98626.23;1747147;80;21067;-69
2022/09/14 20:29:17;;;;;;;7.85;6.97;;;;;;;12.74;100.00;98629.52;1746658;81;21106;-69
2022/09/14 20:31:44;;;;;;;8.40;7.05;;;;;;;12.70;100.00;98620.89;1753630;81;21054;-69
2022/09/14 20:34:10;;;;;;;;;;;;;;;12.67;100.00;98618.23;1776075;80;21616;-69
2022/09/14 20:36:37;;;;;;;8.10;6.53;;;;;;;12.68;100.00;98622.55;1744233;80;20284;-69
2022/09/14 20:39:04;;;;;;;7.22;6.17;;;;;;;12.63;100.00;98619.16;1746326;80;21110;-69
2022/09/14 20:41:33;;;;;;;7.50;6.62;;;;;;;12.62;100.00;98614.81;1748181;80;21117;-68
2022/09/14 20:43:59;;;;;;;8.15;6.30;;;;;;;12.64;100.00;98627.61;1746143;81;21074;-70
2022/09/14 20:46:35;;;;;;;9.65;6.85;;;;;;;12.67;100.00;98632.44;1754589;80;21036;-69
2022/09/14 20:49:03;;;;;;;6.95;6.25;;;;;;;12.66;100.00;98626.17;1760691;80;21035;-69
2022/09/14 20:51:29;;;;;;;7.62;6.67;;;;;;;12.64;100.00;98623.52;1762776;80;21070;-69
2022/09/14 20:53:56;;;;;;;7.58;6.70;;;;;;;12.65;100.00;98621.81;1747409;81;21139;-69
2022/09/14 20:56:26;;;;;;;8.15;6.03;;;;;;;12.70;100.00;98624.43;1750452;80;21039;-69
2022/09/14 20:58:54;;;;;;;9.03;6.55;;;;;;;12.74;100.00;98623.25;1765419;80;21102;-69
2022/09/14 21:01:23;;;;;;;7.08;6.37;;;;;;;12.80;100.00;98623.35;1747589;81;21078;-69
2022/09/14 21:03:50;;;;;;;8.85;6.30;;;;;;;12.82;100.00;98628.73;1758723;80;21014;-69
2022/09/14 21:06:19;;;;;;;8.80;6.42;;;;;;;12.85;100.00;98619.14;1757182;80;21062;-69
2022/09/14 21:08:48;;;;;;;8.25;6.40;;;;;;;12.89;100.00;98616.03;1767637;80;20975;-69
2022/09/14 21:11:24;;;;;;;7.78;7.08;;;;;;;12.92;100.00;98618.12;1744808;80;21340;-69
2022/09/14 21:13:56;;;;;;;9.73;7.10;;;;;;;12.90;100.00;98621.72;1747772;81;21193;-69
2022/09/14 21:16:31;;;;;;;8.93;7.40;;;;;;;12.94;100.00;98630.91;1751176;80;21121;-69
2022/09/14 21:19:03;;;;;;;8.68;7.62;;;;;;;13.00;100.00;98626.12;1741545;81;22147;-69
2022/09/14 21:21:33;;;;;;;8.28;6.15;;;;;;;13.04;100.00;98615.59;1748059;81;21082;-69
2022/09/14 21:24:03;;;;;;;8.48;6.62;;;;;;;13.11;100.00;98618.72;1756842;80;21084;-69
2022/09/14 21:26:33;;;;;;;6.65;5.95;;;;;;;13.16;100.00;98618.59;1683138;84;21082;-69
2022/09/14 21:29:06;;;;;;;9.15;6.40;;;;;;;13.21;100.00;98619.83;1741829;81;21642;-69
2022/09/14 21:31:36;;;;;;;8.95;6.92;;;;;;;13.27;100.00;98618.55;1750821;80;21700;-69
2022/09/14 21:34:06;;;;;;;7.83;7.03;;;;;;;13.31;100.00;98607.80;1747398;80;21079;-69
2022/09/14 21:36:38;;;;;;;8.20;6.03;;;;;;;13.30;100.00;98611.64;1749687;80;21565;-69
2022/09/14 21:39:11;;;;;;;9.48;6.97;;;;;;;13.30;100.00;98615.19;1747424;80;21084;-69
2022/09/14 21:41:40;;;;;;;9.55;6.55;;;;;;;13.33;100.00;98613.18;1755576;81;21117;-69
2022/09/14 21:44:08;;;;;;;9.25;6.17;;;;;;;13.35;100.00;98613.69;1756988;80;21083;-69
2022/09/14 21:46:36;;;;;;;7.92;6.60;;;;;;;13.33;100.00;98609.08;1749844;80;21035;-69
2022/09/14 21:49:05;;;;;;;7.75;6.95;;;;;;;13.30;100.00;98615.74;1765826;80;21070;-69
2022/09/14 21:51:35;;;;;;;7.37;6.60;;;;;;;13.23;100.00;98613.47;1776695;80;21059;-69
2022/09/14 21:54:05;;;;;;;8.03;6.55;;;;;;;13.20;100.00;98611.38;1770800;81;21094;-69
2022/09/14 21:56:35;;;;;;;8.88;6.87;;;;;;;13.19;100.00;98608.95;1707764;84;21058;-70
2022/09/14 21:59:07;;;;;;;7.03;6.03;;;;;;;13.19;100.00;98617.14;1752345;81;21075;-69
2022/09/14 22:01:34;;;;;;;9.10;6.78;;;;;;;13.18;100.00;98614.97;1746177;81;21047;-69
2022/09/14 22:04:02;;;;;;;9.38;7.15;;;;;;;13.14;100.00;98607.19;1747959;81;21095;-69
2022/09/14 22:06:30;;;;;;;7.35;6.65;;;;;;;13.09;100.00;98606.47;1711736;82;21098;-69
2022/09/14 22:08:58;;;;;;;7.47;6.53;;;;;;;13.04;100.00;98600.57;1712287;82;21077;-69
2022/09/14 22:11:31;;;;;;;8.80;6.67;;;;;;;13.04;100.00;98598.42;1749965;81;21665;-70
2022/09/14 22:14:02;;;;;;;7.53;5.97;;;;;;;13.03;100.00;98594.89;1747405;81;21095;-69
2022/09/14 22:16:32;;;;;;;7.00;6.20;;;;;;;13.02;100.00;98598.73;1747679;81;21129;-70
2022/09/14 22:19:05;;;;;;;8.25;6.78;;;;;;;13.02;100.00;98591.09;1770086;80;21449;-70
2022/09/14 22:21:35;;;;;;;7.25;6.55;;;;;;;12.99;100.00;98587.07;1745643;81;21677;-70
2022/09/14 22:24:04;;;;;;;8.55;6.72;;;;;;;12.93;100.00;98577.41;1745472;82;21050;-70
2022/09/14 22:26:32;;;;;;;9.18;6.53;;;;;;;12.91;100.00;98586.47;1766071;81;21634;-70
2022/09/14 22:28:59;;;;;;;7.72;6.33;;;;;;;12.91;100.00;98587.27;1747441;81;21141;-70
2022/09/14 22:31:28;;;;;;;7.83;5.83;;;;;;;12.91;100.00;98591.37;1759182;80;21063;-70
2022/09/14 22:33:56;;;;;;;10.48;6.00;;;;;;;12.90;100.00;98595.77;1753514;80;21964;-70
2022/09/14 22:36:23;;;;;;;9.10;6.78;;;;;;;12.87;100.00;98593.67;1747805;81;21082;-70
2022/09/14 22:38:49;;;;;;;7.60;6.72;;;;;;;12.81;100.00;98589.47;1761158;81;21011;-70
2022/09/14 22:41:19;;;;;;;7.42;6.58;;;;;;;12.76;100.00;98595.87;1750725;80;21042;-70
2022/09/14 22:43:46;;;;;;;8.68;6.87;;;;;;;12.77;100.00;98596.67;1747752;81;21089;-69
2022/09/14 22:46:14;;;;;;;8.28;6.45;;;;;;;12.74;100.00;98579.56;1751753;80;21063;-69
2022/09/14 22:48:41;;;;;;;8.85;6.30;;;;;;;12.73;100.00;98583.39;1748642;81;21044;-69
2022/09/14 22:51:11;;;;;;;7.87;6.35;;;;;;;12.72;100.00;98577.13;1750598;81;21087;-69
2022/09/14 22:53:38;;;;;;;6.80;5.72;;;;;;;12.72;100.00;98578.49;1744926;80;22205;-69
2022/09/14 22:56:08;;;;;;;12.03;6.65;;;;;;;12.73;100.00;98576.57;1750937;81;21066;-69
2022/09/14 22:58:35;;;;;;;7.60;5.83;;;;;;;12.74;100.00;98574.91;1696180;84;21077;-70
2022/09/14 23:01:10;;;;;;;10.10;6.87;;;;;;;12.72;100.00;98577.68;1752406;80;21114;-69
2022/09/14 23:03:37;;;;;;;9.58;6.85;;;;;;;12.65;100.00;98578.13;1749190;80;21039;-69
2022/09/14 23:06:04;;;;;;;9.93;6.80;;;;;;;12.61;100.00;98573.05;1760888;80;21047;-69
2022/09/14 23:08:31;;;;;;;8.30;7.05;;;;;;;12.62;100.00;98570.57;1779937;80;21589;-69
2022/09/14 23:13:53;;;;;;;11.50;6.47;;;;;;;12.62;100.00;98576.59;1599944;88;21133;-69
2022/09/14 23:16:24;;;;;;;8.90;6.70;;;;;;;12.59;100.00;98564.38;1627851;87;21090;-69
2022/09/14 23:18:57;;;;;;;7.35;6.65;;;;;;;12.59;100.00;98567.11;1628177;87;21588;-69
2022/09/14 23:21:24;;;;;;;7.53;6.60;;;;;;;12.60;100.00;98572.02;1647386;86;21090;-69
2022/09/14 23:23:59;;;;;;;11.48;7.33;;;;;;;12.58;100.00;98563.31;1644793;86;21884;-69
2022/09/14 23:26:27;;;;;;;7.78;6.92;;;;;;;12.53;100.00;98565.64;1676061;84;21694;-70
2022/09/14 23:29:01;;;;;;;8.30;6.90;;;;;;;12.51;100.00;98565.12;1687042;84;22284;-69
2022/09/14 23:31:28;;;;;;;10.98;7.10;;;;;;;12.53;100.00;98563.46;1684769;84;21368;-70
2022/09/14 23:33:57;;;;;;;9.98;6.37;;;;;;;12.50;100.00;98556.71;1695513;84;21590;-69
2022/09/14 23:36:26;;;;;;;8.03;7.22;;;;;;;12.51;100.00;98565.12;1642780;87;21102;-70
2022/09/14 23:38:53;;;;;;;11.80;7.67;;;;;;;12.50;100.00;98566.82;1681964;84;21637;-70
2022/09/14 23:41:22;;;;;;;8.10;7.30;;;;;;;12.46;100.00;98555.72;1692317;84;21015;-69
2022/09/14 23:43:49;;;;;;;8.68;6.72;;;;;;;12.43;100.00;98550.30;1691513;84;21410;-69
2022/09/14 23:46:15;;;;;;;9.00;7.30;;;;;;;12.46;100.00;98540.16;1681172;84;21070;-69
2022/09/14 23:48:42;;;;;;;11.43;6.83;;;;;;;12.48;100.00;98548.02;1685149;84;21027;-69
2022/09/14 23:51:08;;;;;;;;;;;;;;;12.50;100.00;98552.62;1685011;84;21366;-69
2022/09/14 23:53:35;;;;;;;11.23;7.37;;;;;;;12.51;100.00;98555.57;1681911;84;20139;-68
2022/09/14 23:56:02;;;;;;;10.68;7.78;;;;;;;12.44;100.00;98551.92;1679903;84;21063;-69
2022/09/14 23:58:29;;;;;;;9.20;7.30;;;;;;;12.39;100.00;98542.52;1674401;84;21082;-69
